sensor_id;sensor_type;location;lat;lon;timestamp;pressure;altitude;pressure_sealevel;temperature;humidity
79465;BME280;68932;47.410;8.232;2023-11-19T00:00:18;97166.96;;;7.08;82.72
79465;BME280;68932;47.410;8.232;2023-11-19T00:02:46;97158.58;;;7.09;82.79
79465;BME280;68932;47.410;8.232;2023-11-19T00:05:14;97157.10;;;7.10;82.90
79465;BME280;68932;47.410;8.232;2023-11-19T00:07:43;97142.77;;;7.11;82.93
79465;BME280;68932;47.410;8.232;2023-11-19T00:10:12;97142.33;;;7.13;83.03
79465;BME280;68932;47.410;8.232;2023-11-19T00:12:42;97129.80;;;7.16;83.09
79465;BME280;68932;47.410;8.232;2023-11-19T00:15:11;97129.66;;;7.19;83.04
79465;BME280;68932;47.410;8.232;2023-11-19T00:17:40;97126.23;;;7.21;82.97
79465;BME280;68932;47.410;8.232;2023-11-19T00:20:10;97126.16;;;7.23;82.94
79465;BME280;68932;47.410;8.232;2023-11-19T00:22:39;97127.84;;;7.25;82.81
79465;BME280;68932;47.410;8.232;2023-11-19T00:25:09;97124.79;;;7.23;82.67
79465;BME280;68932;47.410;8.232;2023-11-19T00:27:37;97117.39;;;7.20;82.59
79465;BME280;68932;47.410;8.232;2023-11-19T00:30:07;97122.23;;;7.21;82.75
79465;BME280;68932;47.410;8.232;2023-11-19T00:32:35;97115.69;;;7.24;82.80
79465;BME280;68932;47.410;8.232;2023-11-19T00:35:05;97118.25;;;7.24;82.84
79465;BME280;68932;47.410;8.232;2023-11-19T00:37:33;97102.42;;;7.27;82.77
79465;BME280;68932;47.410;8.232;2023-11-19T00:40:01;97095.64;;;7.30;82.77
79465;BME280;68932;47.410;8.232;2023-11-19T00:42:30;97092.10;;;7.31;82.71
79465;BME280;68932;47.410;8.232;2023-11-19T00:44:58;97085.92;;;7.32;82.51
79465;BME280;68932;47.410;8.232;2023-11-19T00:47:26;97088.61;;;7.31;82.35
79465;BME280;68932;47.410;8.232;2023-11-19T00:49:54;97085.77;;;7.29;82.11
79465;BME280;68932;47.410;8.232;2023-11-19T00:52:23;97081.91;;;7.26;82.03
79465;BME280;68932;47.410;8.232;2023-11-19T00:54:51;97080.30;;;7.23;82.16
79465;BME280;68932;47.410;8.232;2023-11-19T00:57:19;97075.61;;;7.19;82.07
79465;BME280;68932;47.410;8.232;2023-11-19T00:59:47;97083.64;;;7.15;82.01
79465;BME280;68932;47.410;8.232;2023-11-19T01:02:15;97086.92;;;7.13;82.18
79465;BME280;68932;47.410;8.232;2023-11-19T01:04:44;97084.10;;;7.13;82.21
79465;BME280;68932;47.410;8.232;2023-11-19T01:07:12;97077.92;;;7.15;82.17
79465;BME280;68932;47.410;8.232;2023-11-19T01:09:42;97066.84;;;7.17;82.09
79465;BME280;68932;47.410;8.232;2023-11-19T01:12:11;97065.49;;;7.19;81.98
79465;BME280;68932;47.410;8.232;2023-11-19T01:14:39;97075.88;;;7.21;81.85
79465;BME280;68932;47.410;8.232;2023-11-19T01:17:07;97073.32;;;7.24;81.86
79465;BME280;68932;47.410;8.232;2023-11-19T01:19:35;97071.15;;;7.25;81.82
79465;BME280;68932;47.410;8.232;2023-11-19T01:22:04;97068.95;;;7.27;81.93
79465;BME280;68932;47.410;8.232;2023-11-19T01:24:32;97073.17;;;7.26;81.94
79465;BME280;68932;47.410;8.232;2023-11-19T01:27:00;97066.27;;;7.25;82.10
79465;BME280;68932;47.410;8.232;2023-11-19T01:29:29;97059.77;;;7.26;82.22
79465;BME280;68932;47.410;8.232;2023-11-19T01:31:57;97057.73;;;7.29;82.32
79465;BME280;68932;47.410;8.232;2023-11-19T01:34:25;97055.84;;;7.31;82.18
79465;BME280;68932;47.410;8.232;2023-11-19T01:36:53;97063.90;;;7.33;82.06
79465;BME280;68932;47.410;8.232;2023-11-19T01:39:21;97061.52;;;7.36;81.64
79465;BME280;68932;47.410;8.232;2023-11-19T01:41:50;97051.95;;;7.39;81.61
79465;BME280;68932;47.410;8.232;2023-11-19T01:44:18;97043.50;;;7.40;81.29
79465;BME280;68932;47.410;8.232;2023-11-19T01:46:47;97036.25;;;7.42;81.28
79465;BME280;68932;47.410;8.232;2023-11-19T01:49:17;97021.48;;;7.44;81.21
79465;BME280;68932;47.410;8.232;2023-11-19T01:51:45;97014.52;;;7.47;81.31
79465;BME280;68932;47.410;8.232;2023-11-19T01:54:14;97011.66;;;7.49;81.06
79465;BME280;68932;47.410;8.232;2023-11-19T01:56:43;97006.75;;;7.49;80.98
79465;BME280;68932;47.410;8.232;2023-11-19T01:59:13;97008.30;;;7.50;81.22
79465;BME280;68932;47.410;8.232;2023-11-19T02:01:42;97013.48;;;7.51;81.08
79465;BME280;68932;47.410;8.232;2023-11-19T02:04:11;97007.48;;;7.52;81.18
79465;BME280;68932;47.410;8.232;2023-11-19T02:06:41;97007.80;;;7.52;81.13
79465;BME280;68932;47.410;8.232;2023-11-19T02:09:11;97000.40;;;7.54;81.20
79465;BME280;68932;47.410;8.232;2023-11-19T02:11:40;96997.19;;;7.55;81.28
79465;BME280;68932;47.410;8.232;2023-11-19T02:14:09;97002.17;;;7.56;81.37
79465;BME280;68932;47.410;8.232;2023-11-19T02:16:37;96995.52;;;7.57;81.39
79465;BME280;68932;47.410;8.232;2023-11-19T02:19:05;96991.61;;;7.58;81.39
79465;BME280;68932;47.410;8.232;2023-11-19T02:21:34;96988.96;;;7.59;81.47
79465;BME280;68932;47.410;8.232;2023-11-19T02:24:03;96985.84;;;7.59;81.43
79465;BME280;68932;47.410;8.232;2023-11-19T02:26:39;96984.42;;;7.59;81.57
79465;BME280;68932;47.410;8.232;2023-11-19T02:29:08;96986.36;;;7.58;81.62
79465;BME280;68932;47.410;8.232;2023-11-19T02:31:36;96988.27;;;7.59;81.70
79465;BME280;68932;47.410;8.232;2023-11-19T02:34:05;96995.92;;;7.59;81.65
79465;BME280;68932;47.410;8.232;2023-11-19T02:36:33;97005.99;;;7.60;81.81
79465;BME280;68932;47.410;8.232;2023-11-19T02:39:01;97009.80;;;7.61;81.87
79465;BME280;68932;47.410;8.232;2023-11-19T02:41:29;97017.47;;;7.61;81.97
79465;BME280;68932;47.410;8.232;2023-11-19T02:43:58;97019.91;;;7.61;82.18
79465;BME280;68932;47.410;8.232;2023-11-19T02:46:26;97017.52;;;7.60;82.42
79465;BME280;68932;47.410;8.232;2023-11-19T02:48:54;97020.36;;;7.59;82.78
79465;BME280;68932;47.410;8.232;2023-11-19T02:51:23;97013.64;;;7.58;82.85
79465;BME280;68932;47.410;8.232;2023-11-19T02:53:51;97010.74;;;7.56;83.01
79465;BME280;68932;47.410;8.232;2023-11-19T02:56:19;97013.93;;;7.55;83.23
79465;BME280;68932;47.410;8.232;2023-11-19T02:58:47;97001.79;;;7.54;83.48
79465;BME280;68932;47.410;8.232;2023-11-19T03:01:23;96996.45;;;7.52;83.60
79465;BME280;68932;47.410;8.232;2023-11-19T03:03:51;96994.38;;;7.52;83.75
79465;BME280;68932;47.410;8.232;2023-11-19T03:06:20;96991.77;;;7.52;83.95
79465;BME280;68932;47.410;8.232;2023-11-19T03:08:48;97000.45;;;7.53;84.10
79465;BME280;68932;47.410;8.232;2023-11-19T03:11:17;97001.27;;;7.54;84.21
79465;BME280;68932;47.410;8.232;2023-11-19T03:13:45;96998.95;;;7.55;84.32
79465;BME280;68932;47.410;8.232;2023-11-19T03:16:13;96994.20;;;7.56;84.51
79465;BME280;68932;47.410;8.232;2023-11-19T03:18:41;96990.65;;;7.56;84.53
79465;BME280;68932;47.410;8.232;2023-11-19T03:21:10;96985.54;;;7.57;84.70
79465;BME280;68932;47.410;8.232;2023-11-19T03:23:38;96984.27;;;7.58;84.60
79465;BME280;68932;47.410;8.232;2023-11-19T03:26:07;96983.66;;;7.60;84.59
79465;BME280;68932;47.410;8.232;2023-11-19T03:28:35;96988.61;;;7.63;84.57
79465;BME280;68932;47.410;8.232;2023-11-19T03:31:06;96992.34;;;7.65;84.65
79465;BME280;68932;47.410;8.232;2023-11-19T03:33:34;96988.20;;;7.67;84.66
79465;BME280;68932;47.410;8.232;2023-11-19T03:36:03;96982.89;;;7.68;84.66
79465;BME280;68932;47.410;8.232;2023-11-19T03:38:31;96975.14;;;7.70;84.80
79465;BME280;68932;47.410;8.232;2023-11-19T03:40:59;96977.54;;;7.70;84.75
79465;BME280;68932;47.410;8.232;2023-11-19T03:43:28;96978.84;;;7.72;84.82
79465;BME280;68932;47.410;8.232;2023-11-19T03:45:56;96974.23;;;7.74;84.74
79465;BME280;68932;47.410;8.232;2023-11-19T03:48:24;96975.42;;;7.74;84.91
79465;BME280;68932;47.410;8.232;2023-11-19T03:50:52;96966.89;;;7.74;84.92
79465;BME280;68932;47.410;8.232;2023-11-19T03:53:21;96968.40;;;7.75;84.81
79465;BME280;68932;47.410;8.232;2023-11-19T03:55:49;96972.67;;;7.76;84.85
79465;BME280;68932;47.410;8.232;2023-11-19T03:58:17;96983.52;;;7.79;84.98
79465;BME280;68932;47.410;8.232;2023-11-19T04:00:45;96981.10;;;7.82;85.06
79465;BME280;68932;47.410;8.232;2023-11-19T04:03:13;96982.83;;;7.85;85.12
79465;BME280;68932;47.410;8.232;2023-11-19T04:05:42;96988.23;;;7.89;85.19
79465;BME280;68932;47.410;8.232;2023-11-19T04:08:10;96985.85;;;7.91;85.21
79465;BME280;68932;47.410;8.232;2023-11-19T04:10:38;96993.58;;;7.93;85.33
79465;BME280;68932;47.410;8.232;2023-11-19T04:13:06;97006.72;;;7.95;85.41
79465;BME280;68932;47.410;8.232;2023-11-19T04:15:35;97017.80;;;7.97;85.51
79465;BME280;68932;47.410;8.232;2023-11-19T04:18:03;97017.99;;;7.99;85.50
79465;BME280;68932;47.410;8.232;2023-11-19T04:20:31;97021.02;;;8.02;85.65
79465;BME280;68932;47.410;8.232;2023-11-19T04:23:00;97016.75;;;8.04;85.79
79465;BME280;68932;47.410;8.232;2023-11-19T04:25:28;97021.05;;;8.05;85.95
79465;BME280;68932;47.410;8.232;2023-11-19T04:27:56;97007.35;;;8.06;85.94
79465;BME280;68932;47.410;8.232;2023-11-19T04:30:24;97008.00;;;8.07;86.01
79465;BME280;68932;47.410;8.232;2023-11-19T04:32:53;97001.01;;;8.08;86.13
79465;BME280;68932;47.410;8.232;2023-11-19T04:35:21;97005.89;;;8.08;86.32
79465;BME280;68932;47.410;8.232;2023-11-19T04:37:49;97007.78;;;8.08;86.40
79465;BME280;68932;47.410;8.232;2023-11-19T04:40:18;97003.33;;;8.10;86.45
79465;BME280;68932;47.410;8.232;2023-11-19T04:42:46;97005.88;;;8.11;86.59
79465;BME280;68932;47.410;8.232;2023-11-19T04:45:15;96999.65;;;8.13;86.85
79465;BME280;68932;47.410;8.232;2023-11-19T04:47:43;97000.77;;;8.15;86.99
79465;BME280;68932;47.410;8.232;2023-11-19T04:50:12;97008.99;;;8.18;86.98
79465;BME280;68932;47.410;8.232;2023-11-19T04:52:40;97008.11;;;8.21;87.11
79465;BME280;68932;47.410;8.232;2023-11-19T04:55:09;97001.55;;;8.23;87.23
79465;BME280;68932;47.410;8.232;2023-11-19T04:57:37;97003.02;;;8.25;87.40
79465;BME280;68932;47.410;8.232;2023-11-19T05:00:07;96998.67;;;8.27;87.67
79465;BME280;68932;47.410;8.232;2023-11-19T05:02:36;96984.69;;;8.31;87.97
79465;BME280;68932;47.410;8.232;2023-11-19T05:05:05;96981.72;;;8.33;87.87
79465;BME280;68932;47.410;8.232;2023-11-19T05:07:33;96985.06;;;8.36;87.80
79465;BME280;68932;47.410;8.232;2023-11-19T05:10:03;96998.71;;;8.39;87.83
79465;BME280;68932;47.410;8.232;2023-11-19T05:12:31;96994.79;;;8.41;87.79
79465;BME280;68932;47.410;8.232;2023-11-19T05:15:00;96999.20;;;8.44;87.97
79465;BME280;68932;47.410;8.232;2023-11-19T05:17:28;97007.15;;;8.45;88.03
79465;BME280;68932;47.410;8.232;2023-11-19T05:19:56;97009.64;;;8.47;88.06
79465;BME280;68932;47.410;8.232;2023-11-19T05:22:24;97009.17;;;8.49;88.14
79465;BME280;68932;47.410;8.232;2023-11-19T05:24:53;97009.38;;;8.52;88.08
79465;BME280;68932;47.410;8.232;2023-11-19T05:27:21;97001.95;;;8.53;88.09
79465;BME280;68932;47.410;8.232;2023-11-19T05:29:49;97006.73;;;8.55;88.12
79465;BME280;68932;47.410;8.232;2023-11-19T05:32:18;97004.27;;;8.56;88.17
79465;BME280;68932;47.410;8.232;2023-11-19T05:34:46;97001.43;;;8.56;88.11
79465;BME280;68932;47.410;8.232;2023-11-19T05:37:14;96998.17;;;8.58;88.04
79465;BME280;68932;47.410;8.232;2023-11-19T05:39:43;97006.35;;;8.59;88.17
79465;BME280;68932;47.410;8.232;2023-11-19T05:42:12;97009.95;;;8.60;88.17
79465;BME280;68932;47.410;8.232;2023-11-19T05:44:41;97005.30;;;8.62;88.14
79465;BME280;68932;47.410;8.232;2023-11-19T05:47:09;97005.59;;;8.63;88.18
79465;BME280;68932;47.410;8.232;2023-11-19T05:49:37;96995.57;;;8.64;88.27
79465;BME280;68932;47.410;8.232;2023-11-19T05:52:06;96996.88;;;8.66;88.32
79465;BME280;68932;47.410;8.232;2023-11-19T05:54:34;96990.14;;;8.68;88.57
79465;BME280;68932;47.410;8.232;2023-11-19T05:57:02;96986.17;;;8.69;88.50
79465;BME280;68932;47.410;8.232;2023-11-19T05:59:31;96989.17;;;8.72;88.57
79465;BME280;68932;47.410;8.232;2023-11-19T06:02:00;96992.77;;;8.73;88.60
79465;BME280;68932;47.410;8.232;2023-11-19T06:04:29;97000.14;;;8.76;88.69
79465;BME280;68932;47.410;8.232;2023-11-19T06:06:57;96999.50;;;8.78;88.81
79465;BME280;68932;47.410;8.232;2023-11-19T06:09:25;96997.93;;;8.80;88.94
79465;BME280;68932;47.410;8.232;2023-11-19T06:11:54;96992.77;;;8.82;88.82
79465;BME280;68932;47.410;8.232;2023-11-19T06:14:22;96993.00;;;8.84;88.74
79465;BME280;68932;47.410;8.232;2023-11-19T06:16:50;97001.81;;;8.86;88.81
79465;BME280;68932;47.410;8.232;2023-11-19T06:19:18;97001.52;;;8.88;88.93
79465;BME280;68932;47.410;8.232;2023-11-19T06:21:47;96996.02;;;8.90;88.79
79465;BME280;68932;47.410;8.232;2023-11-19T06:24:15;96997.14;;;8.91;88.82
79465;BME280;68932;47.410;8.232;2023-11-19T06:26:43;96994.08;;;8.93;88.77
79465;BME280;68932;47.410;8.232;2023-11-19T06:29:11;96992.03;;;8.95;89.06
79465;BME280;68932;47.410;8.232;2023-11-19T06:31:41;96999.58;;;8.97;89.08
79465;BME280;68932;47.410;8.232;2023-11-19T06:34:09;96997.16;;;9.00;89.26
79465;BME280;68932;47.410;8.232;2023-11-19T06:36:38;96994.05;;;9.02;89.18
79465;BME280;68932;47.410;8.232;2023-11-19T06:39:07;96987.30;;;9.04;89.06
79465;BME280;68932;47.410;8.232;2023-11-19T06:41:35;96989.59;;;9.06;89.27
79465;BME280;68932;47.410;8.232;2023-11-19T06:44:04;96984.52;;;9.09;89.20
79465;BME280;68932;47.410;8.232;2023-11-19T06:46:32;96987.64;;;9.13;89.35
79465;BME280;68932;47.410;8.232;2023-11-19T06:49:00;96992.21;;;9.15;89.26
79465;BME280;68932;47.410;8.232;2023-11-19T06:51:28;96997.85;;;9.17;89.26
79465;BME280;68932;47.410;8.232;2023-11-19T06:53:57;96992.55;;;9.18;89.14
79465;BME280;68932;47.410;8.232;2023-11-19T06:56:25;96989.83;;;9.20;89.14
79465;BME280;68932;47.410;8.232;2023-11-19T06:58:54;96991.63;;;9.23;89.17
79465;BME280;68932;47.410;8.232;2023-11-19T07:01:22;96993.66;;;9.24;89.17
79465;BME280;68932;47.410;8.232;2023-11-19T07:03:50;96994.58;;;9.26;89.21
79465;BME280;68932;47.410;8.232;2023-11-19T07:06:19;97000.80;;;9.27;89.11
79465;BME280;68932;47.410;8.232;2023-11-19T07:08:47;97000.16;;;9.29;89.07
79465;BME280;68932;47.410;8.232;2023-11-19T07:11:15;97010.93;;;9.30;89.14
79465;BME280;68932;47.410;8.232;2023-11-19T07:13:44;97011.75;;;9.31;89.06
79465;BME280;68932;47.410;8.232;2023-11-19T07:16:12;97009.41;;;9.32;89.08
79465;BME280;68932;47.410;8.232;2023-11-19T07:18:41;97012.65;;;9.33;89.19
79465;BME280;68932;47.410;8.232;2023-11-19T07:21:10;97007.17;;;9.34;89.28
79465;BME280;68932;47.410;8.232;2023-11-19T07:23:38;97008.52;;;9.35;89.17
79465;BME280;68932;47.410;8.232;2023-11-19T07:26:08;97013.34;;;9.36;89.29
79465;BME280;68932;47.410;8.232;2023-11-19T07:28:36;97016.06;;;9.38;89.29
79465;BME280;68932;47.410;8.232;2023-11-19T07:31:05;97020.54;;;9.39;89.35
79465;BME280;68932;47.410;8.232;2023-11-19T07:33:33;97024.16;;;9.40;89.39
79465;BME280;68932;47.410;8.232;2023-11-19T07:36:02;97021.27;;;9.41;89.51
79465;BME280;68932;47.410;8.232;2023-11-19T07:38:30;97020.86;;;9.43;89.41
79465;BME280;68932;47.410;8.232;2023-11-19T07:40:58;97022.04;;;9.43;89.37
79465;BME280;68932;47.410;8.232;2023-11-19T07:43:27;97027.27;;;9.44;89.30
79465;BME280;68932;47.410;8.232;2023-11-19T07:45:55;97029.64;;;9.45;89.27
79465;BME280;68932;47.410;8.232;2023-11-19T07:48:23;97025.77;;;9.45;89.42
79465;BME280;68932;47.410;8.232;2023-11-19T07:50:52;97026.77;;;9.46;89.32
79465;BME280;68932;47.410;8.232;2023-11-19T07:53:20;97033.66;;;9.48;89.32
79465;BME280;68932;47.410;8.232;2023-11-19T07:55:49;97030.59;;;9.49;89.31
79465;BME280;68932;47.410;8.232;2023-11-19T07:58:17;97032.96;;;9.51;89.30
79465;BME280;68932;47.410;8.232;2023-11-19T08:00:46;97034.65;;;9.51;89.40
79465;BME280;68932;47.410;8.232;2023-11-19T08:03:14;97032.28;;;9.53;89.46
79465;BME280;68932;47.410;8.232;2023-11-19T08:05:42;97026.94;;;9.54;89.32
79465;BME280;68932;47.410;8.232;2023-11-19T08:08:10;97017.56;;;9.56;89.41
79465;BME280;68932;47.410;8.232;2023-11-19T08:10:39;97016.07;;;9.58;89.38
79465;BME280;68932;47.410;8.232;2023-11-19T08:13:08;97025.57;;;9.59;89.45
79465;BME280;68932;47.410;8.232;2023-11-19T08:15:36;97035.99;;;9.61;89.47
79465;BME280;68932;47.410;8.232;2023-11-19T08:18:04;97031.58;;;9.62;89.39
79465;BME280;68932;47.410;8.232;2023-11-19T08:20:33;97027.52;;;9.63;89.30
79465;BME280;68932;47.410;8.232;2023-11-19T08:23:01;97024.27;;;9.64;89.32
79465;BME280;68932;47.410;8.232;2023-11-19T08:25:30;97027.85;;;9.66;89.37
79465;BME280;68932;47.410;8.232;2023-11-19T08:27:58;97038.58;;;9.68;89.32
79465;BME280;68932;47.410;8.232;2023-11-19T08:30:26;97040.61;;;9.69;89.35
79465;BME280;68932;47.410;8.232;2023-11-19T08:32:54;97040.84;;;9.71;89.22
79465;BME280;68932;47.410;8.232;2023-11-19T08:35:23;97042.64;;;9.73;89.28
79465;BME280;68932;47.410;8.232;2023-11-19T08:37:51;97043.94;;;9.74;89.20
79465;BME280;68932;47.410;8.232;2023-11-19T08:40:19;97043.06;;;9.77;89.27
79465;BME280;68932;47.410;8.232;2023-11-19T08:42:48;97043.08;;;9.80;89.21
79465;BME280;68932;47.410;8.232;2023-11-19T08:45:16;97043.80;;;9.82;89.28
79465;BME280;68932;47.410;8.232;2023-11-19T08:47:44;97043.08;;;9.85;89.31
79465;BME280;68932;47.410;8.232;2023-11-19T08:50:13;97043.83;;;9.88;89.30
79465;BME280;68932;47.410;8.232;2023-11-19T08:52:41;97043.11;;;9.91;89.44
79465;BME280;68932;47.410;8.232;2023-11-19T08:55:10;97050.35;;;9.92;89.41
79465;BME280;68932;47.410;8.232;2023-11-19T08:57:38;97054.07;;;9.94;89.55
79465;BME280;68932;47.410;8.232;2023-11-19T09:00:09;97055.17;;;9.96;89.30
79465;BME280;68932;47.410;8.232;2023-11-19T09:02:37;97045.89;;;9.99;89.51
79465;BME280;68932;47.410;8.232;2023-11-19T09:05:07;97053.20;;;10.03;89.60
79465;BME280;68932;47.410;8.232;2023-11-19T09:07:35;97054.48;;;10.08;89.53
79465;BME280;68932;47.410;8.232;2023-11-19T09:10:05;97055.22;;;10.13;89.47
79465;BME280;68932;47.410;8.232;2023-11-19T09:12:33;97056.19;;;10.17;89.53
79465;BME280;68932;47.410;8.232;2023-11-19T09:15:02;97060.04;;;10.20;89.49
79465;BME280;68932;47.410;8.232;2023-11-19T09:17:30;97056.22;;;10.22;89.43
79465;BME280;68932;47.410;8.232;2023-11-19T09:19:59;97060.39;;;10.25;89.37
79465;BME280;68932;47.410;8.232;2023-11-19T09:22:27;97063.73;;;10.28;89.46
79465;BME280;68932;47.410;8.232;2023-11-19T09:24:55;97068.53;;;10.30;89.47
79465;BME280;68932;47.410;8.232;2023-11-19T09:27:23;97073.25;;;10.33;89.51
79465;BME280;68932;47.410;8.232;2023-11-19T09:29:52;97071.72;;;10.35;89.36
79465;BME280;68932;47.410;8.232;2023-11-19T09:32:20;97068.89;;;10.38;89.34
79465;BME280;68932;47.410;8.232;2023-11-19T09:34:48;97068.36;;;10.41;89.45
79465;BME280;68932;47.410;8.232;2023-11-19T09:37:16;97070.02;;;10.46;89.44
79465;BME280;68932;47.410;8.232;2023-11-19T09:39:45;97069.07;;;10.49;89.40
79465;BME280;68932;47.410;8.232;2023-11-19T09:42:13;97066.98;;;10.52;89.47
79465;BME280;68932;47.410;8.232;2023-11-19T09:44:43;97068.31;;;10.53;89.26
79465;BME280;68932;47.410;8.232;2023-11-19T09:47:12;97067.91;;;10.53;89.26
79465;BME280;68932;47.410;8.232;2023-11-19T09:49:42;97074.38;;;10.54;89.21
79465;BME280;68932;47.410;8.232;2023-11-19T09:52:11;97070.83;;;10.55;89.20
79465;BME280;68932;47.410;8.232;2023-11-19T09:54:40;97066.01;;;10.56;89.19
79465;BME280;68932;47.410;8.232;2023-11-19T09:57:08;97061.14;;;10.58;89.29
79465;BME280;68932;47.410;8.232;2023-11-19T09:59:38;97063.05;;;10.61;89.29
79465;BME280;68932;47.410;8.232;2023-11-19T10:02:07;97063.40;;;10.64;89.36
79465;BME280;68932;47.410;8.232;2023-11-19T10:04:37;97063.55;;;10.67;89.41
79465;BME280;68932;47.410;8.232;2023-11-19T10:07:05;97058.56;;;10.71;89.43
79465;BME280;68932;47.410;8.232;2023-11-19T10:09:34;97061.15;;;10.74;89.32
79465;BME280;68932;47.410;8.232;2023-11-19T10:12:03;97056.03;;;10.77;89.34
79465;BME280;68932;47.410;8.232;2023-11-19T10:14:32;97052.00;;;10.81;89.26
79465;BME280;68932;47.410;8.232;2023-11-19T10:17:04;97050.50;;;10.84;89.25
79465;BME280;68932;47.410;8.232;2023-11-19T10:19:35;97046.50;;;10.89;89.23
79465;BME280;68932;47.410;8.232;2023-11-19T10:22:06;97054.39;;;10.95;89.34
79465;BME280;68932;47.410;8.232;2023-11-19T10:24:35;97062.47;;;10.99;89.23
79465;BME280;68932;47.410;8.232;2023-11-19T10:27:04;97064.15;;;11.03;89.29
79465;BME280;68932;47.410;8.232;2023-11-19T10:29:37;97061.14;;;11.06;89.15
79465;BME280;68932;47.410;8.232;2023-11-19T10:32:06;97057.61;;;11.09;89.21
79465;BME280;68932;47.410;8.232;2023-11-19T10:34:35;97054.46;;;11.12;89.11
79465;BME280;68932;47.410;8.232;2023-11-19T10:37:03;97056.44;;;11.14;89.03
79465;BME280;68932;47.410;8.232;2023-11-19T10:39:52;97057.14;;;11.16;89.03
79465;BME280;68932;47.410;8.232;2023-11-19T10:42:21;97059.92;;;11.19;89.02
79465;BME280;68932;47.410;8.232;2023-11-19T10:44:50;97063.05;;;11.23;89.04
79465;BME280;68932;47.410;8.232;2023-11-19T10:47:20;97063.58;;;11.25;88.99
79465;BME280;68932;47.410;8.232;2023-11-19T10:49:48;97062.92;;;11.30;88.92
79465;BME280;68932;47.410;8.232;2023-11-19T10:52:19;97066.38;;;11.36;89.06
79465;BME280;68932;47.410;8.232;2023-11-19T10:54:50;97060.15;;;11.42;88.94
79465;BME280;68932;47.410;8.232;2023-11-19T10:57:22;97052.15;;;11.49;88.86
79465;BME280;68932;47.410;8.232;2023-11-19T11:00:02;97043.90;;;11.54;88.78
79465;BME280;68932;47.410;8.232;2023-11-19T11:02:35;97038.14;;;11.56;88.63
79465;BME280;68932;47.410;8.232;2023-11-19T11:05:08;97031.63;;;11.56;88.41
79465;BME280;68932;47.410;8.232;2023-11-19T11:07:37;97028.94;;;11.57;88.27
79465;BME280;68932;47.410;8.232;2023-11-19T11:10:10;97025.21;;;11.58;88.36
79465;BME280;68932;47.410;8.232;2023-11-19T11:12:42;97029.25;;;11.58;88.22
79465;BME280;68932;47.410;8.232;2023-11-19T11:15:10;97032.80;;;11.57;88.32
79465;BME280;68932;47.410;8.232;2023-11-19T11:17:40;97035.98;;;11.57;88.18
79465;BME280;68932;47.410;8.232;2023-11-19T11:20:11;97034.69;;;11.58;88.38
79465;BME280;68932;47.410;8.232;2023-11-19T11:22:48;97023.97;;;11.61;88.48
79465;BME280;68932;47.410;8.232;2023-11-19T11:25:28;97026.08;;;11.63;88.31
79465;BME280;68932;47.410;8.232;2023-11-19T11:28:10;97017.00;;;11.65;88.23
79465;BME280;68932;47.410;8.232;2023-11-19T11:30:50;97021.83;;;11.66;88.10
79465;BME280;68932;47.410;8.232;2023-11-19T11:33:32;97020.59;;;11.67;88.01
79465;BME280;68932;47.410;8.232;2023-11-19T11:36:13;97015.85;;;11.66;88.01
79465;BME280;68932;47.410;8.232;2023-11-19T11:38:45;97009.50;;;11.67;87.92
79465;BME280;68932;47.410;8.232;2023-11-19T11:41:19;97011.84;;;11.68;87.99
79465;BME280;68932;47.410;8.232;2023-11-19T11:43:47;97017.02;;;11.70;88.02
79465;BME280;68932;47.410;8.232;2023-11-19T11:49:26;97016.17;;;11.72;87.94
79465;BME280;68932;47.410;8.232;2023-11-19T11:52:02;97018.23;;;11.72;87.93
79465;BME280;68932;47.410;8.232;2023-11-19T11:54:31;97015.43;;;11.75;87.86
79465;BME280;68932;47.410;8.232;2023-11-19T11:57:19;97011.02;;;11.78;87.81
79465;BME280;68932;47.410;8.232;2023-11-19T11:59:51;97004.60;;;11.81;87.90
79465;BME280;68932;47.410;8.232;2023-11-19T12:02:22;97001.34;;;11.85;87.75
79465;BME280;68932;47.410;8.232;2023-11-19T12:04:51;96994.55;;;11.90;87.76
79465;BME280;68932;47.410;8.232;2023-11-19T12:07:21;96990.84;;;11.95;87.74
79465;BME280;68932;47.410;8.232;2023-11-19T12:09:53;96979.34;;;12.02;87.81
79465;BME280;68932;47.410;8.232;2023-11-19T12:12:23;96978.90;;;12.08;87.54
79465;BME280;68932;47.410;8.232;2023-11-19T12:15:06;96975.67;;;12.13;87.55
79465;BME280;68932;47.410;8.232;2023-11-19T12:17:48;96975.63;;;12.19;87.28
79465;BME280;68932;47.410;8.232;2023-11-19T12:20:18;96976.32;;;12.24;87.23
79465;BME280;68932;47.410;8.232;2023-11-19T12:22:48;96981.61;;;12.26;87.18
79465;BME280;68932;47.410;8.232;2023-11-19T12:25:17;96980.80;;;12.27;87.05
79465;BME280;68932;47.410;8.232;2023-11-19T12:27:48;96982.41;;;12.29;87.10
79465;BME280;68932;47.410;8.232;2023-11-19T12:30:23;96979.02;;;12.30;86.96
79465;BME280;68932;47.410;8.232;2023-11-19T12:32:52;96975.81;;;12.31;86.98
79465;BME280;68932;47.410;8.232;2023-11-19T12:35:21;96972.41;;;12.31;87.06
79465;BME280;68932;47.410;8.232;2023-11-19T12:37:50;96974.20;;;12.31;87.03
79465;BME280;68932;47.410;8.232;2023-11-19T12:40:20;96977.48;;;12.30;86.91
79465;BME280;68932;47.410;8.232;2023-11-19T12:42:49;96982.73;;;12.27;86.99
79465;BME280;68932;47.410;8.232;2023-11-19T12:45:18;96976.89;;;12.26;87.07
79465;BME280;68932;47.410;8.232;2023-11-19T12:47:47;96970.86;;;12.24;87.19
79465;BME280;68932;47.410;8.232;2023-11-19T12:50:16;96970.17;;;12.24;87.41
79465;BME280;68932;47.410;8.232;2023-11-19T12:52:54;96960.32;;;12.24;87.45
79465;BME280;68932;47.410;8.232;2023-11-19T12:55:30;96961.34;;;12.27;87.57
79465;BME280;68932;47.410;8.232;2023-11-19T12:57:58;96958.15;;;12.32;87.56
79465;BME280;68932;47.410;8.232;2023-11-19T13:00:27;96956.95;;;12.36;87.56
79465;BME280;68932;47.410;8.232;2023-11-19T13:02:56;96957.48;;;12.41;87.40
79465;BME280;68932;47.410;8.232;2023-11-19T13:05:30;96949.73;;;12.46;87.48
79465;BME280;68932;47.410;8.232;2023-11-19T13:08:02;96949.02;;;12.51;87.40
79465;BME280;68932;47.410;8.232;2023-11-19T13:10:31;96945.95;;;12.57;87.26
79465;BME280;68932;47.410;8.232;2023-11-19T13:13:08;96945.96;;;12.62;86.97
79465;BME280;68932;47.410;8.232;2023-11-19T13:15:36;96951.88;;;12.62;86.71
79465;BME280;68932;47.410;8.232;2023-11-19T13:18:05;96951.98;;;12.63;86.76
79465;BME280;68932;47.410;8.232;2023-11-19T13:20:33;96958.14;;;12.64;86.72